Serenity — WDF3354 — position and weather

sailwx.info

Track history (hours):
 
Tides and Currents Weather Stations Pressure Air Temp Water Temp Dewpoint Dewpoint Depression Visibility Wind Speed Wind Dir Waves Ship Positions

Serenity

Owner: cox, robert e, Saint Helens, OR. More information available from US FCC via Universal Licensing System and Coast Guard Vessel Documentation Center.

Last reported at 2017-Oct-15 04:02 UTC. Time now 2017-Oct-19 07:35 UTC.
Position N 47°40' W 122°23'.

Length 14 m.

Type: Pleasure craft. MMSI: 367438910.

Date/timePositionNaut miles runAvg speedWind from/ knotsBaromVisibWave heightAir tempDewpointWater temp
2017-Oct-15 04:02N 47°40' W 122°23'0 0.0
2017-Oct-15 03:59N 47°40' W 122°23'0 0.0
2017-Oct-15 03:29N 47°40' W 122°23'2 4.2
2017-Oct-15 03:00N 47°39' W 122°20'1 1.7
2017-Oct-15 02:28N 47°39' W 122°19'0 0.0
2017-Oct-15 01:58N 47°39' W 122°19'0 0.1
2017-Oct-15 00:00N 47°39' W 122°20'2 3.3
2017-Oct-14 23:30N 47°39' W 122°22'1 1.0
2017-Oct-14 22:59N 47°39' W 122°23'0 0.6
2017-Oct-14 22:28N 47°40' W 122°23'  
2017-Oct-08 01:44N 47°40' W 122°23'0 0.5
2017-Oct-08 01:30N 47°40' W 122°23'0 0.5
2017-Oct-08 00:59N 47°39' W 122°23'2 3.3
2017-Oct-08 00:30N 47°39' W 122°21'2 3.3
2017-Oct-08 00:00N 47°40' W 122°23'  
Track history (hours):
 
Tides and Currents Weather Stations Pressure Air Temp Water Temp Dewpoint Dewpoint Depression Visibility Wind Speed Wind Dir Waves Ship Positions

Serenity

Owner: cox, robert e, Saint Helens, OR. More information available from US FCC via Universal Licensing System and Coast Guard Vessel Documentation Center.

Last reported at 2017-Oct-15 04:02 UTC. Time now 2017-Oct-19 07:35 UTC.
Position N 47°40' W 122°23'.

Length 14 m.

Type: Pleasure craft. MMSI: 367438910.

Date/timePositionNaut miles runAvg speedWind from/ knotsBaromVisibWave heightAir tempDewpointWater temp
2017-Oct-15 04:02N 47°40' W 122°23'0 0.0
2017-Oct-15 03:59N 47°40' W 122°23'0 0.0
2017-Oct-15 03:29N 47°40' W 122°23'2 4.2
2017-Oct-15 03:00N 47°39' W 122°20'1 1.7
2017-Oct-15 02:28N 47°39' W 122°19'0 0.0
2017-Oct-15 01:58N 47°39' W 122°19'0 0.1
2017-Oct-15 00:00N 47°39' W 122°20'2 3.3
2017-Oct-14 23:30N 47°39' W 122°22'1 1.0
2017-Oct-14 22:59N 47°39' W 122°23'0 0.6
2017-Oct-14 22:28N 47°40' W 122°23'  
2017-Oct-08 01:44N 47°40' W 122°23'0 0.5
2017-Oct-08 01:30N 47°40' W 122°23'0 0.5
2017-Oct-08 00:59N 47°39' W 122°23'2 3.3
2017-Oct-08 00:30N 47°39' W 122°21'2 3.3
2017-Oct-08 00:00N 47°40' W 122°23'  

Dump ship's entire track history